Bahri Yanbu — HZFH — position and weather

sailwx.info

Track history (hours):
 
Tides and Currents Weather Stations Pressure Air Temp Water Temp Dewpoint Dewpoint Depression Visibility Wind Speed Wind Dir Waves Ship Positions

Bahri Yanbu

Last reported at 2017-Oct-11 20:17 UTC. Time now 2017-Oct-20 12:44 UTC.
Position N 37°33' E 016°16'.
Warning: this ship's position is 8 days out of date.

Length 205 m; draft 8.4 m.

Type: Cargo ship. MMSI: 403532001.

Date/timePositionNaut miles runAvg speedWind from/ knotsBaromVisibWave heightAir tempDewpointWater temp
2017-Oct-11 20:17N 37°33' E 016°16'412.4
2017-Oct-11 20:00N 37°35' E 016°12'612.3
2017-Oct-11 19:29N 37°38' E 016°05'611.6
2017-Oct-11 19:00N 37°41' E 015°59'510.8
2017-Oct-11 18:30N 37°43' E 015°53'510.9
2017-Oct-11 18:01N 37°46' E 015°47'611.2
2017-Oct-11 17:30N 37°49' E 015°41'611.6
2017-Oct-11 17:00N 37°54' E 015°37'38211.1
2017-Oct-10 06:38N 42°29' E 009°49'3613.7
2017-Oct-10 04:01N 43°03' E 009°36'113.5
2017-Oct-10 03:55N 43°04' E 009°35'513.2
2017-Oct-10 03:30N 43°10' E 009°34'713.2
2017-Oct-10 03:00N 43°16' E 009°31'612.8
2017-Oct-10 02:30N 43°22' E 009°28'612.7
2017-Oct-10 02:00N 43°28' E 009°27'612.8
2017-Oct-10 01:30N 43°34' E 009°24'612.9
2017-Oct-10 01:00N 43°40' E 009°21'713.0
2017-Oct-10 00:30N 43°47' E 009°18'713.1
2017-Oct-10 00:00N 43°53' E 009°15'713.4
2017-Oct-09 23:30N 43°59' E 009°11'713.3
2017-Oct-09 23:00N 44°05' E 009°07'713.3
2017-Oct-09 22:30N 44°11' E 009°03'713.4
2017-Oct-09 22:00N 44°17' E 008°59'612.7
2017-Oct-09 21:30N 44°23' E 008°57'2 4.6
2017-Oct-09 21:00N 44°24' E 008°54'0 0.5
2017-Oct-09 20:30N 44°24' E 008°54'0 0.0
2017-Oct-09 20:00N 44°24' E 008°54'0 0.0
2017-Oct-09 19:30N 44°24' E 008°54'0 0.0
2017-Oct-09 19:00N 44°24' E 008°54'0 0.0
2017-Oct-09 18:30N 44°24' E 008°54'0 0.0
2017-Oct-09 18:00N 44°24' E 008°54'0 0.0
2017-Oct-09 17:30N 44°24' E 008°54'0 0.0
2017-Oct-09 17:00N 44°24' E 008°54'0 0.0
2017-Oct-09 16:30N 44°24' E 008°54'0 0.0
2017-Oct-09 16:00N 44°24' E 008°54'0 0.0
2017-Oct-09 15:30N 44°24' E 008°54'0 0.0
2017-Oct-09 15:00N 44°24' E 008°54'0 0.0
2017-Oct-09 14:30N 44°24' E 008°54'0 0.0
2017-Oct-09 14:00N 44°24' E 008°54'0 0.0
2017-Oct-09 13:30N 44°24' E 008°54'0 0.0
2017-Oct-09 13:00N 44°24' E 008°54'0 0.0
2017-Oct-09 12:30N 44°24' E 008°54'0 0.0
2017-Oct-09 12:00N 44°24' E 008°54'0 0.0
2017-Oct-09 11:30N 44°24' E 008°54'0 0.0
2017-Oct-09 11:00N 44°24' E 008°54'0 0.0
2017-Oct-09 10:30N 44°24' E 008°54'0 0.0
2017-Oct-09 10:00N 44°24' E 008°54'0 0.0
2017-Oct-09 09:30N 44°24' E 008°54'0 0.0
2017-Oct-09 09:00N 44°24' E 008°54'0 0.0
2017-Oct-09 08:30N 44°24' E 008°54'0 0.0
2017-Oct-09 08:00N 44°24' E 008°54'0 0.0
2017-Oct-09 07:30N 44°24' E 008°54'0 0.0
2017-Oct-09 07:00N 44°24' E 008°54'0 0.0
2017-Oct-09 06:30N 44°24' E 008°54'0 0.0
2017-Oct-09 06:00N 44°24' E 008°54'0 0.0
2017-Oct-09 05:30N 44°24' E 008°54'0 0.0
2017-Oct-09 05:00N 44°24' E 008°54'0 0.0
2017-Oct-09 04:30N 44°24' E 008°54'0 0.2
2017-Oct-09 04:00N 44°24' E 008°54'2 3.7
2017-Oct-09 03:30N 44°23' E 008°56'3 5.9
2017-Oct-09 03:00N 44°21' E 008°58'3 6.2
2017-Oct-09 02:30N 44°18' E 008°58'3 5.3
2017-Oct-09 02:00N 44°15' E 008°58'510.8
2017-Oct-09 01:30N 44°10' E 008°58'611.9
2017-Oct-09 01:00N 44°04' E 008°57'611.2
2017-Oct-09 00:30N 43°59' E 008°54'611.3
2017-Oct-09 00:00N 43°54' E 008°49'611.6
2017-Oct-08 23:30N 43°50' E 008°44'611.6
2017-Oct-08 23:00N 43°45' E 008°40'611.5
2017-Oct-08 22:30N 43°40' E 008°35'611.8
2017-Oct-08 22:00N 43°36' E 008°30'612.0
2017-Oct-08 21:30N 43°31' E 008°25'352 9.1
2017-Oct-07 07:03N 39°03' E 003°23'1 7.1
2017-Oct-07 06:58N 39°02' E 003°22'12 7.2
2017-Oct-07 05:16N 38°55' E 003°09'2 7.1
2017-Oct-07 04:56N 38°54' E 003°07'146 8.4
2017-Oct-06 11:29N 37°30' E 000°34'5 9.4
2017-Oct-06 10:59N 37°27' E 000°30'4 9.4
2017-Oct-06 10:30N 37°24' E 000°25'5 9.3
2017-Oct-06 09:56N 37°21' E 000°20'5 9.2
2017-Oct-06 09:26N 37°18' E 000°15'4 9.1
2017-Oct-06 09:00N 37°16' E 000°11'5 9.8
2017-Oct-06 08:30N 37°13' E 000°06'5 9.8
2017-Oct-06 07:59N 37°10' E 000°01'5 9.7
2017-Oct-06 07:30N 37°07' W 000°04'510.5
2017-Oct-06 07:00N 37°04' W 000°09'714.8
2017-Oct-06 06:30N 37°00' W 000°17'712.1
2017-Oct-06 05:57N 36°56' W 000°23'612.0
2017-Oct-06 05:29N 36°53' W 000°29'612.1
2017-Oct-06 05:01N 36°49' W 000°35'612.2
2017-Oct-06 04:29N 36°46' W 000°41'612.2
2017-Oct-06 04:00N 36°43' W 000°47'712.4
2017-Oct-06 03:25N 36°38' W 000°55'2412.8
2017-Oct-06 01:32N 36°24' W 001°19'012.9
2017-Oct-06 01:30N 36°24' W 001°20'1512.6
2017-Oct-06 00:21N 36°17' W 001°35'412.7
2017-Oct-06 00:00N 36°16' W 001°41'612.9
2017-Oct-05 23:30N 36°15' W 001°48'813.0
2017-Oct-05 22:56N 36°14' W 001°58'3112.6
2017-Oct-05 20:30N 36°11' W 002°35'12411.8
2017-Oct-05 09:57N 35°59' W 005°08'512.1
2017-Oct-05 09:30N 35°59' W 005°15'611.6
2017-Oct-05 09:00N 35°58' W 005°22'612.1
2017-Oct-05 08:30N 35°56' W 005°29'87 9.5
2017-Oct-04 23:20N 35°54' W 007°17'20 9.0
2017-Oct-04 21:10N 35°56' W 007°41'2 8.7
2017-Oct-04 20:54N 35°56' W 007°44'4 9.1
2017-Oct-04 20:29N 35°57' W 007°49'4 9.1
2017-Oct-04 20:00N 35°58' W 007°54'4 9.2
2017-Oct-04 19:30N 35°59' W 007°59'5 9.7
2017-Oct-04 19:00N 35°60' W 008°05'510.0
2017-Oct-04 18:30N 36°01' W 008°11'1610.8
2017-Oct-04 17:02N 36°04' W 008°31'710.9
2017-Oct-04 16:22N 36°06' W 008°39'410.8
2017-Oct-04 16:00N 36°07' W 008°44'510.9
2017-Oct-04 15:30N 36°08' W 008°50'611.0
2017-Oct-04 15:00N 36°09' W 008°57'511.0
2017-Oct-04 14:30N 36°10' W 009°04'510.9
2017-Oct-04 14:00N 36°11' W 009°10'510.9
2017-Oct-04 13:30N 36°13' W 009°17'611.0
2017-Oct-04 13:00N 36°14' W 009°23'611.1
2017-Oct-04 12:30N 36°15' W 009°30'511.0
2017-Oct-04 12:01N 36°16' W 009°37'611.2
2017-Oct-04 11:27N 36°17' W 009°44'511.3
2017-Oct-04 11:01N 36°19' W 009°50'611.4
2017-Oct-04 10:30N 36°20' W 009°57'611.3
2017-Oct-04 10:00N 36°21' W 010°04'611.3
2017-Oct-04 09:30N 36°22' W 010°11'611.3
2017-Oct-04 08:59N 36°24' W 010°18'511.1
2017-Oct-04 08:30N 36°25' W 010°25'511.0
2017-Oct-04 08:00N 36°26' W 010°31'611.0
2017-Oct-04 07:30N 36°27' W 010°38'510.8
2017-Oct-04 07:00N 36°28' W 010°44'510.8
2017-Oct-04 06:30N 36°30' W 010°51'611.1
2017-Oct-04 05:59N 36°31' W 010°58'511.0
2017-Oct-04 05:30N 36°32' W 011°04'611.0
2017-Oct-04 05:00N 36°33' W 011°11'510.8
2017-Oct-04 04:30N 36°34' W 011°18'510.5
2017-Oct-04 04:00N 36°35' W 011°24'510.9
2017-Oct-04 03:30N 36°36' W 011°31'611.2
2017-Oct-04 03:00N 36°38' W 011°37'511.0
2017-Oct-04 02:30N 36°39' W 011°44'510.6
2017-Oct-04 02:00N 36°40' W 011°51'510.6
2017-Oct-04 01:30N 36°41' W 011°57'510.8
2017-Oct-04 01:00N 36°42' W 012°04'510.6
2017-Oct-04 00:30N 36°44' W 012°10'510.7
2017-Oct-04 00:00N 36°45' W 012°17'510.6
2017-Oct-03 23:30N 36°46' W 012°23'510.8
2017-Oct-03 23:01N 36°47' W 012°30'510.9
2017-Oct-03 22:30N 36°48' W 012°36'510.8
2017-Oct-03 22:00N 36°49' W 012°43'510.7
2017-Oct-03 21:30N 36°51' W 012°49'510.9
2017-Oct-03 21:00N 36°52' W 012°56'611.2
2017-Oct-03 20:30N 36°53' W 013°03'611.1
2017-Oct-03 20:00N 36°54' W 013°10'510.8
2017-Oct-03 19:30N 36°55' W 013°16'510.6
2017-Oct-03 19:00N 36°56' W 013°23'510.5
2017-Oct-03 18:30N 36°58' W 013°29'510.7
2017-Oct-03 18:00N 36°59' W 013°36'510.8
2017-Oct-03 17:30N 36°60' W 013°42'510.7
2017-Oct-03 17:00N 37°01' W 013°49'510.6
2017-Oct-03 16:30N 37°02' W 013°55'510.5
2017-Oct-03 16:00N 37°03' W 014°02'610.7
2017-Oct-03 15:27N 37°05' W 014°09'511.4
2017-Oct-03 15:00N 37°06' W 014°15'1110.7
2017-Oct-03 14:00N 37°08' W 014°28'510.9
2017-Oct-03 13:30N 37°09' W 014°35'610.8
2017-Oct-03 12:59N 37°10' W 014°42'610.9
2017-Oct-03 12:28N 37°12' W 014°49'510.9
2017-Oct-03 12:00N 37°13' W 014°55'510.9
2017-Oct-03 11:31N 37°14' W 015°02'510.8
2017-Oct-03 11:00N 37°15' W 015°08'510.9
2017-Oct-03 10:30N 37°16' W 015°15'510.8
2017-Oct-03 10:01N 37°18' W 015°22'510.7
2017-Oct-03 09:30N 37°19' W 015°28'810.6
2017-Oct-03 08:47N 37°20' W 015°38'510.8
2017-Oct-03 08:18N 37°21' W 015°44'311.0
2017-Oct-03 08:00N 37°22' W 015°48'611.1
2017-Oct-03 07:28N 37°23' W 015°55'511.1
2017-Oct-03 07:01N 37°25' W 016°02'2011.1
2017-Oct-03 05:13N 37°29' W 016°26'211.0
2017-Oct-03 05:00N 37°29' W 016°29'510.9
2017-Oct-03 04:30N 37°31' W 016°35'1210.9
2017-Oct-03 03:26N 37°33' W 016°50'511.1
2017-Oct-03 03:00N 37°34' W 016°56'511.0
2017-Oct-03 02:30N 37°35' W 017°02'611.1
2017-Oct-03 02:00N 37°36' W 017°09'711.1
2017-Oct-03 01:22N 37°38' W 017°18'411.2
2017-Oct-03 01:00N 37°39' W 017°23'611.2
2017-Oct-03 00:26N 37°40' W 017°31'511.3
2017-Oct-03 00:00N 37°41' W 017°37'611.4
2017-Oct-02 23:30N 37°42' W 017°44'611.8
2017-Oct-02 23:00N 37°44' W 017°51'611.7
2017-Oct-02 22:30N 37°45' W 017°59'611.4
2017-Oct-02 22:00N 37°46' W 018°05'611.5
2017-Oct-02 21:30N 37°47' W 018°13'611.8
2017-Oct-02 20:59N 37°49' W 018°20'611.8
2017-Oct-02 20:30N 37°50' W 018°27'611.6
2017-Oct-02 20:00N 37°51' W 018°34'611.4
2017-Oct-02 19:31N 37°52' W 018°41'611.5
2017-Oct-02 19:00N 37°53' W 018°49'711.3
2017-Oct-02 18:25N 37°55' W 018°57'711.3
2017-Oct-02 17:51N 37°56' W 019°05'411.4
2017-Oct-02 17:29N 37°57' W 019°10'511.4
2017-Oct-02 17:01N 37°58' W 019°17'611.3
2017-Oct-02 16:29N 37°60' W 019°24'611.6
2017-Oct-02 16:00N 38°01' W 019°31'811.7
2017-Oct-02 15:21N 38°03' W 019°40'411.5
2017-Oct-02 15:00N 38°04' W 019°45'811.6
2017-Oct-02 14:20N 38°05' W 019°55'411.2
2017-Oct-02 14:00N 38°06' W 019°59'611.2
2017-Oct-02 13:30N 38°07' W 020°07'611.4
2017-Oct-02 13:00N 38°09' W 020°14'611.5
2017-Oct-02 12:30N 38°10' W 020°21'611.4
2017-Oct-02 12:00N 38°11' W 020°28'611.4
2017-Oct-02 11:30N 38°12' W 020°35'611.3
2017-Oct-02 11:00N 38°14' W 020°42'611.3
2017-Oct-02 10:30N 38°15' W 020°49'711.6
2017-Oct-02 09:53N 38°16' W 020°58'411.3
2017-Oct-02 09:29N 38°17' W 021°03'611.4
2017-Oct-02 08:58N 38°19' W 021°11'511.2
2017-Oct-02 08:30N 38°20' W 021°17'1011.4
2017-Oct-02 07:39N 38°22' W 021°29'311.6
2017-Oct-02 07:23N 38°23' W 021°33'411.9
2017-Oct-02 07:00N 38°24' W 021°39'711.7
2017-Oct-02 06:23N 38°25' W 021°48'411.6
2017-Oct-02 06:00N 38°26' W 021°53'611.5
2017-Oct-02 05:31N 38°28' W 022°00'611.8
2017-Oct-02 04:58N 38°29' W 022°08'511.8
2017-Oct-02 04:30N 38°30' W 022°15'611.9
2017-Oct-02 04:00N 38°31' W 022°23'612.0
2017-Oct-02 03:30N 38°32' W 022°30'912.2
2017-Oct-02 02:46N 38°34' W 022°41'312.1
2017-Oct-02 02:30N 38°35' W 022°45'1212.1
2017-Oct-02 01:31N 38°38' W 023°00'3412.1
2017-Oct-01 22:43N 38°45' W 023°43'311.9
2017-Oct-01 22:26N 38°46' W 023°47'611.7
2017-Oct-01 21:54N 38°47' W 023°55'511.9
2017-Oct-01 21:29N 38°48' W 024°01'811.8
2017-Oct-01 20:51N 38°50' W 024°10'  
Track history (hours):
 
Tides and Currents Weather Stations Pressure Air Temp Water Temp Dewpoint Dewpoint Depression Visibility Wind Speed Wind Dir Waves Ship Positions

Bahri Yanbu

Last reported at 2017-Oct-11 20:17 UTC. Time now 2017-Oct-20 12:44 UTC.
Position N 37°33' E 016°16'.
Warning: this ship's position is 8 days out of date.

Length 205 m; draft 8.4 m.

Type: Cargo ship. MMSI: 403532001.

Date/timePositionNaut miles runAvg speedWind from/ knotsBaromVisibWave heightAir tempDewpointWater temp
2017-Oct-11 20:17N 37°33' E 016°16'412.4
2017-Oct-11 20:00N 37°35' E 016°12'612.3
2017-Oct-11 19:29N 37°38' E 016°05'611.6
2017-Oct-11 19:00N 37°41' E 015°59'510.8
2017-Oct-11 18:30N 37°43' E 015°53'510.9
2017-Oct-11 18:01N 37°46' E 015°47'611.2
2017-Oct-11 17:30N 37°49' E 015°41'611.6
2017-Oct-11 17:00N 37°54' E 015°37'38211.1
2017-Oct-10 06:38N 42°29' E 009°49'3613.7
2017-Oct-10 04:01N 43°03' E 009°36'113.5
2017-Oct-10 03:55N 43°04' E 009°35'513.2
2017-Oct-10 03:30N 43°10' E 009°34'713.2
2017-Oct-10 03:00N 43°16' E 009°31'612.8
2017-Oct-10 02:30N 43°22' E 009°28'612.7
2017-Oct-10 02:00N 43°28' E 009°27'612.8
2017-Oct-10 01:30N 43°34' E 009°24'612.9
2017-Oct-10 01:00N 43°40' E 009°21'713.0
2017-Oct-10 00:30N 43°47' E 009°18'713.1
2017-Oct-10 00:00N 43°53' E 009°15'713.4
2017-Oct-09 23:30N 43°59' E 009°11'713.3
2017-Oct-09 23:00N 44°05' E 009°07'713.3
2017-Oct-09 22:30N 44°11' E 009°03'713.4
2017-Oct-09 22:00N 44°17' E 008°59'612.7
2017-Oct-09 21:30N 44°23' E 008°57'2 4.6
2017-Oct-09 21:00N 44°24' E 008°54'0 0.5
2017-Oct-09 20:30N 44°24' E 008°54'0 0.0
2017-Oct-09 20:00N 44°24' E 008°54'0 0.0
2017-Oct-09 19:30N 44°24' E 008°54'0 0.0
2017-Oct-09 19:00N 44°24' E 008°54'0 0.0
2017-Oct-09 18:30N 44°24' E 008°54'0 0.0
2017-Oct-09 18:00N 44°24' E 008°54'0 0.0
2017-Oct-09 17:30N 44°24' E 008°54'0 0.0
2017-Oct-09 17:00N 44°24' E 008°54'0 0.0
2017-Oct-09 16:30N 44°24' E 008°54'0 0.0
2017-Oct-09 16:00N 44°24' E 008°54'0 0.0
2017-Oct-09 15:30N 44°24' E 008°54'0 0.0
2017-Oct-09 15:00N 44°24' E 008°54'0 0.0
2017-Oct-09 14:30N 44°24' E 008°54'0 0.0
2017-Oct-09 14:00N 44°24' E 008°54'0 0.0
2017-Oct-09 13:30N 44°24' E 008°54'0 0.0
2017-Oct-09 13:00N 44°24' E 008°54'0 0.0
2017-Oct-09 12:30N 44°24' E 008°54'0 0.0
2017-Oct-09 12:00N 44°24' E 008°54'0 0.0
2017-Oct-09 11:30N 44°24' E 008°54'0 0.0
2017-Oct-09 11:00N 44°24' E 008°54'0 0.0
2017-Oct-09 10:30N 44°24' E 008°54'0 0.0
2017-Oct-09 10:00N 44°24' E 008°54'0 0.0
2017-Oct-09 09:30N 44°24' E 008°54'0 0.0
2017-Oct-09 09:00N 44°24' E 008°54'0 0.0
2017-Oct-09 08:30N 44°24' E 008°54'0 0.0
2017-Oct-09 08:00N 44°24' E 008°54'0 0.0
2017-Oct-09 07:30N 44°24' E 008°54'0 0.0
2017-Oct-09 07:00N 44°24' E 008°54'0 0.0
2017-Oct-09 06:30N 44°24' E 008°54'0 0.0
2017-Oct-09 06:00N 44°24' E 008°54'0 0.0
2017-Oct-09 05:30N 44°24' E 008°54'0 0.0
2017-Oct-09 05:00N 44°24' E 008°54'0 0.0
2017-Oct-09 04:30N 44°24' E 008°54'0 0.2
2017-Oct-09 04:00N 44°24' E 008°54'2 3.7
2017-Oct-09 03:30N 44°23' E 008°56'3 5.9
2017-Oct-09 03:00N 44°21' E 008°58'3 6.2
2017-Oct-09 02:30N 44°18' E 008°58'3 5.3
2017-Oct-09 02:00N 44°15' E 008°58'510.8
2017-Oct-09 01:30N 44°10' E 008°58'611.9
2017-Oct-09 01:00N 44°04' E 008°57'611.2
2017-Oct-09 00:30N 43°59' E 008°54'611.3
2017-Oct-09 00:00N 43°54' E 008°49'611.6
2017-Oct-08 23:30N 43°50' E 008°44'611.6
2017-Oct-08 23:00N 43°45' E 008°40'611.5
2017-Oct-08 22:30N 43°40' E 008°35'611.8
2017-Oct-08 22:00N 43°36' E 008°30'612.0
2017-Oct-08 21:30N 43°31' E 008°25'352 9.1
2017-Oct-07 07:03N 39°03' E 003°23'1 7.1
2017-Oct-07 06:58N 39°02' E 003°22'12 7.2
2017-Oct-07 05:16N 38°55' E 003°09'2 7.1
2017-Oct-07 04:56N 38°54' E 003°07'146 8.4
2017-Oct-06 11:29N 37°30' E 000°34'5 9.4
2017-Oct-06 10:59N 37°27' E 000°30'4 9.4
2017-Oct-06 10:30N 37°24' E 000°25'5 9.3
2017-Oct-06 09:56N 37°21' E 000°20'5 9.2
2017-Oct-06 09:26N 37°18' E 000°15'4 9.1
2017-Oct-06 09:00N 37°16' E 000°11'5 9.8
2017-Oct-06 08:30N 37°13' E 000°06'5 9.8
2017-Oct-06 07:59N 37°10' E 000°01'5 9.7
2017-Oct-06 07:30N 37°07' W 000°04'510.5
2017-Oct-06 07:00N 37°04' W 000°09'714.8
2017-Oct-06 06:30N 37°00' W 000°17'712.1
2017-Oct-06 05:57N 36°56' W 000°23'612.0
2017-Oct-06 05:29N 36°53' W 000°29'612.1
2017-Oct-06 05:01N 36°49' W 000°35'612.2
2017-Oct-06 04:29N 36°46' W 000°41'612.2
2017-Oct-06 04:00N 36°43' W 000°47'712.4
2017-Oct-06 03:25N 36°38' W 000°55'2412.8
2017-Oct-06 01:32N 36°24' W 001°19'012.9
2017-Oct-06 01:30N 36°24' W 001°20'1512.6
2017-Oct-06 00:21N 36°17' W 001°35'412.7
2017-Oct-06 00:00N 36°16' W 001°41'612.9
2017-Oct-05 23:30N 36°15' W 001°48'813.0
2017-Oct-05 22:56N 36°14' W 001°58'3112.6
2017-Oct-05 20:30N 36°11' W 002°35'12411.8
2017-Oct-05 09:57N 35°59' W 005°08'512.1
2017-Oct-05 09:30N 35°59' W 005°15'611.6
2017-Oct-05 09:00N 35°58' W 005°22'612.1
2017-Oct-05 08:30N 35°56' W 005°29'87 9.5
2017-Oct-04 23:20N 35°54' W 007°17'20 9.0
2017-Oct-04 21:10N 35°56' W 007°41'2 8.7
2017-Oct-04 20:54N 35°56' W 007°44'4 9.1
2017-Oct-04 20:29N 35°57' W 007°49'4 9.1
2017-Oct-04 20:00N 35°58' W 007°54'4 9.2
2017-Oct-04 19:30N 35°59' W 007°59'5 9.7
2017-Oct-04 19:00N 35°60' W 008°05'510.0
2017-Oct-04 18:30N 36°01' W 008°11'1610.8
2017-Oct-04 17:02N 36°04' W 008°31'710.9
2017-Oct-04 16:22N 36°06' W 008°39'410.8
2017-Oct-04 16:00N 36°07' W 008°44'510.9
2017-Oct-04 15:30N 36°08' W 008°50'611.0
2017-Oct-04 15:00N 36°09' W 008°57'511.0
2017-Oct-04 14:30N 36°10' W 009°04'510.9
2017-Oct-04 14:00N 36°11' W 009°10'510.9
2017-Oct-04 13:30N 36°13' W 009°17'611.0
2017-Oct-04 13:00N 36°14' W 009°23'611.1
2017-Oct-04 12:30N 36°15' W 009°30'511.0
2017-Oct-04 12:01N 36°16' W 009°37'611.2
2017-Oct-04 11:27N 36°17' W 009°44'511.3
2017-Oct-04 11:01N 36°19' W 009°50'611.4
2017-Oct-04 10:30N 36°20' W 009°57'611.3
2017-Oct-04 10:00N 36°21' W 010°04'611.3
2017-Oct-04 09:30N 36°22' W 010°11'611.3
2017-Oct-04 08:59N 36°24' W 010°18'511.1
2017-Oct-04 08:30N 36°25' W 010°25'511.0
2017-Oct-04 08:00N 36°26' W 010°31'611.0
2017-Oct-04 07:30N 36°27' W 010°38'510.8
2017-Oct-04 07:00N 36°28' W 010°44'510.8
2017-Oct-04 06:30N 36°30' W 010°51'611.1
2017-Oct-04 05:59N 36°31' W 010°58'511.0
2017-Oct-04 05:30N 36°32' W 011°04'611.0
2017-Oct-04 05:00N 36°33' W 011°11'510.8
2017-Oct-04 04:30N 36°34' W 011°18'510.5
2017-Oct-04 04:00N 36°35' W 011°24'510.9
2017-Oct-04 03:30N 36°36' W 011°31'611.2
2017-Oct-04 03:00N 36°38' W 011°37'511.0
2017-Oct-04 02:30N 36°39' W 011°44'510.6
2017-Oct-04 02:00N 36°40' W 011°51'510.6
2017-Oct-04 01:30N 36°41' W 011°57'510.8
2017-Oct-04 01:00N 36°42' W 012°04'510.6
2017-Oct-04 00:30N 36°44' W 012°10'510.7
2017-Oct-04 00:00N 36°45' W 012°17'510.6
2017-Oct-03 23:30N 36°46' W 012°23'510.8
2017-Oct-03 23:01N 36°47' W 012°30'510.9
2017-Oct-03 22:30N 36°48' W 012°36'510.8
2017-Oct-03 22:00N 36°49' W 012°43'510.7
2017-Oct-03 21:30N 36°51' W 012°49'510.9
2017-Oct-03 21:00N 36°52' W 012°56'611.2
2017-Oct-03 20:30N 36°53' W 013°03'611.1
2017-Oct-03 20:00N 36°54' W 013°10'510.8
2017-Oct-03 19:30N 36°55' W 013°16'510.6
2017-Oct-03 19:00N 36°56' W 013°23'510.5
2017-Oct-03 18:30N 36°58' W 013°29'510.7
2017-Oct-03 18:00N 36°59' W 013°36'510.8
2017-Oct-03 17:30N 36°60' W 013°42'510.7
2017-Oct-03 17:00N 37°01' W 013°49'510.6
2017-Oct-03 16:30N 37°02' W 013°55'510.5
2017-Oct-03 16:00N 37°03' W 014°02'610.7
2017-Oct-03 15:27N 37°05' W 014°09'511.4
2017-Oct-03 15:00N 37°06' W 014°15'1110.7
2017-Oct-03 14:00N 37°08' W 014°28'510.9
2017-Oct-03 13:30N 37°09' W 014°35'610.8
2017-Oct-03 12:59N 37°10' W 014°42'610.9
2017-Oct-03 12:28N 37°12' W 014°49'510.9
2017-Oct-03 12:00N 37°13' W 014°55'510.9
2017-Oct-03 11:31N 37°14' W 015°02'510.8
2017-Oct-03 11:00N 37°15' W 015°08'510.9
2017-Oct-03 10:30N 37°16' W 015°15'510.8
2017-Oct-03 10:01N 37°18' W 015°22'510.7
2017-Oct-03 09:30N 37°19' W 015°28'810.6
2017-Oct-03 08:47N 37°20' W 015°38'510.8
2017-Oct-03 08:18N 37°21' W 015°44'311.0
2017-Oct-03 08:00N 37°22' W 015°48'611.1
2017-Oct-03 07:28N 37°23' W 015°55'511.1
2017-Oct-03 07:01N 37°25' W 016°02'2011.1
2017-Oct-03 05:13N 37°29' W 016°26'211.0
2017-Oct-03 05:00N 37°29' W 016°29'510.9
2017-Oct-03 04:30N 37°31' W 016°35'1210.9
2017-Oct-03 03:26N 37°33' W 016°50'511.1
2017-Oct-03 03:00N 37°34' W 016°56'511.0
2017-Oct-03 02:30N 37°35' W 017°02'611.1
2017-Oct-03 02:00N 37°36' W 017°09'711.1
2017-Oct-03 01:22N 37°38' W 017°18'411.2
2017-Oct-03 01:00N 37°39' W 017°23'611.2
2017-Oct-03 00:26N 37°40' W 017°31'511.3
2017-Oct-03 00:00N 37°41' W 017°37'611.4
2017-Oct-02 23:30N 37°42' W 017°44'611.8
2017-Oct-02 23:00N 37°44' W 017°51'611.7
2017-Oct-02 22:30N 37°45' W 017°59'611.4
2017-Oct-02 22:00N 37°46' W 018°05'611.5
2017-Oct-02 21:30N 37°47' W 018°13'611.8
2017-Oct-02 20:59N 37°49' W 018°20'611.8
2017-Oct-02 20:30N 37°50' W 018°27'611.6
2017-Oct-02 20:00N 37°51' W 018°34'611.4
2017-Oct-02 19:31N 37°52' W 018°41'611.5
2017-Oct-02 19:00N 37°53' W 018°49'711.3
2017-Oct-02 18:25N 37°55' W 018°57'711.3
2017-Oct-02 17:51N 37°56' W 019°05'411.4
2017-Oct-02 17:29N 37°57' W 019°10'511.4
2017-Oct-02 17:01N 37°58' W 019°17'611.3
2017-Oct-02 16:29N 37°60' W 019°24'611.6
2017-Oct-02 16:00N 38°01' W 019°31'811.7
2017-Oct-02 15:21N 38°03' W 019°40'411.5
2017-Oct-02 15:00N 38°04' W 019°45'811.6
2017-Oct-02 14:20N 38°05' W 019°55'411.2
2017-Oct-02 14:00N 38°06' W 019°59'611.2
2017-Oct-02 13:30N 38°07' W 020°07'611.4
2017-Oct-02 13:00N 38°09' W 020°14'611.5
2017-Oct-02 12:30N 38°10' W 020°21'611.4
2017-Oct-02 12:00N 38°11' W 020°28'611.4
2017-Oct-02 11:30N 38°12' W 020°35'611.3
2017-Oct-02 11:00N 38°14' W 020°42'611.3
2017-Oct-02 10:30N 38°15' W 020°49'711.6
2017-Oct-02 09:53N 38°16' W 020°58'411.3
2017-Oct-02 09:29N 38°17' W 021°03'611.4
2017-Oct-02 08:58N 38°19' W 021°11'511.2
2017-Oct-02 08:30N 38°20' W 021°17'1011.4
2017-Oct-02 07:39N 38°22' W 021°29'311.6
2017-Oct-02 07:23N 38°23' W 021°33'411.9
2017-Oct-02 07:00N 38°24' W 021°39'711.7
2017-Oct-02 06:23N 38°25' W 021°48'411.6
2017-Oct-02 06:00N 38°26' W 021°53'611.5
2017-Oct-02 05:31N 38°28' W 022°00'611.8
2017-Oct-02 04:58N 38°29' W 022°08'511.8
2017-Oct-02 04:30N 38°30' W 022°15'611.9
2017-Oct-02 04:00N 38°31' W 022°23'612.0
2017-Oct-02 03:30N 38°32' W 022°30'912.2
2017-Oct-02 02:46N 38°34' W 022°41'312.1
2017-Oct-02 02:30N 38°35' W 022°45'1212.1
2017-Oct-02 01:31N 38°38' W 023°00'3412.1
2017-Oct-01 22:43N 38°45' W 023°43'311.9
2017-Oct-01 22:26N 38°46' W 023°47'611.7
2017-Oct-01 21:54N 38°47' W 023°55'511.9
2017-Oct-01 21:29N 38°48' W 024°01'811.8
2017-Oct-01 20:51N 38°50' W 024°10'  

Dump ship's entire track history